Time;durP1;ratioP1;P1;durP2;ratioP2;P2;SDS_P1;SDS_P2;PMS_P1;PMS_P2;Temp;Humidity;BMP_temperature;BMP_pressure;BME280_temperature;BME280_humidity;BME280_pressure;Samples;Min_cycle;Max_cycle;Signal;HPM_P1;HPM_P2
2022/08/19 00:01:33;;;;;;;5.13;4.73;;;;;;;25.62;68.89;96834.28;5049846;28;20205;-31
2022/08/19 00:04:05;;;;;;;7.13;5.00;;;;;;;25.63;68.78;96842.84;5056883;28;20588;-31
2022/08/19 00:06:31;;;;;;;4.37;4.07;;;;;;;25.63;68.89;96841.16;5049458;28;20244;-31
2022/08/19 00:09:00;;;;;;;4.73;4.23;;;;;;;25.63;68.89;96846.28;5049043;28;20255;-32
2022/08/19 00:11:27;;;;;;;4.30;4.00;;;;;;;25.63;69.07;96845.44;5058575;28;20250;-32
2022/08/19 00:13:54;;;;;;;4.80;4.40;;;;;;;25.63;69.07;96858.28;5050214;28;20197;-32
2022/08/19 00:16:22;;;;;;;5.20;4.80;;;;;;;25.63;68.75;96866.88;5049716;28;20479;-31
2022/08/19 00:18:53;;;;;;;4.67;4.37;;;;;;;25.63;69.01;96863.44;5047977;28;20228;-31
2022/08/19 00:21:20;;;;;;;4.80;4.37;;;;;;;25.64;68.88;96867.75;5050691;28;20209;-32
2022/08/19 00:23:47;;;;;;;5.20;4.70;;;;;;;25.63;69.14;96866.00;5045390;28;20239;-32
2022/08/19 00:26:13;;;;;;;4.83;4.43;;;;;;;25.63;69.05;96866.88;5055023;28;20328;-32
2022/08/19 00:28:40;;;;;;;4.33;3.93;;;;;;;25.62;69.22;96861.72;5051418;28;20251;-32
2022/08/19 00:31:07;;;;;;;5.77;4.80;;;;;;;25.60;69.34;96854.00;5041690;28;20201;-31
2022/08/19 00:33:34;;;;;;;4.90;4.50;;;;;;;25.58;69.06;96847.16;5050143;28;20225;-31
2022/08/19 00:36:04;;;;;;;4.83;4.43;;;;;;;25.63;69.07;96853.16;5032122;28;20232;-32
2022/08/19 00:38:31;;;;;;;5.03;4.30;;;;;;;25.60;68.94;96860.84;5048912;28;20319;-32
2022/08/19 00:41:04;;;;;;;4.77;4.37;;;;;;;25.62;69.00;96867.75;5049975;28;20200;-31
2022/08/19 00:43:31;;;;;;;4.57;4.27;;;;;;;25.61;69.16;96863.44;5049653;28;20204;-31
2022/08/19 00:45:58;;;;;;;4.90;4.40;;;;;;;25.62;69.29;96859.16;5049611;28;20331;-32
2022/08/19 00:48:25;;;;;;;4.60;4.30;;;;;;;25.62;69.19;96851.44;5050104;28;20248;-32
2022/08/19 00:50:52;;;;;;;4.70;4.30;;;;;;;25.62;69.02;96851.44;5050211;28;20297;-31
2022/08/19 00:53:21;;;;;;;4.13;3.83;;;;;;;25.63;69.06;96853.16;5049290;28;20659;-31
2022/08/19 00:55:49;;;;;;;4.90;4.50;;;;;;;25.63;69.13;96850.56;5032294;28;20232;-32
2022/08/19 00:58:19;;;;;;;6.00;4.40;;;;;;;25.52;69.12;96837.69;5050810;28;20647;-31
2022/08/19 01:00:46;;;;;;;5.00;4.60;;;;;;;25.63;69.06;96866.00;5052591;28;20575;-32
2022/08/19 01:03:15;;;;;;;4.60;4.20;;;;;;;25.63;68.83;96871.16;5053209;28;20557;-32
2022/08/19 01:05:44;;;;;;;4.97;4.57;;;;;;;25.62;68.76;96872.03;5048094;28;20499;-32
2022/08/19 01:08:11;;;;;;;4.40;4.10;;;;;;;25.52;68.99;96860.00;5052090;28;20692;-32
2022/08/19 01:10:41;;;;;;;4.70;4.30;;;;;;;25.59;69.09;96865.16;5035687;28;20227;-32
2022/08/19 01:13:08;;;;;;;4.90;4.50;;;;;;;25.59;69.01;96870.31;5052156;28;20739;-32
2022/08/19 01:15:56;;;;;;;4.87;4.47;;;;;;;25.61;69.19;96868.59;5034184;28;20237;-32
2022/08/19 01:18:23;;;;;;;5.00;4.60;;;;;;;25.61;68.87;96857.44;5053316;28;20279;-31
2022/08/19 01:20:49;;;;;;;4.80;4.40;;;;;;;25.61;69.17;96863.44;5034649;28;20295;-31
2022/08/19 01:23:18;;;;;;;4.63;4.27;;;;;;;25.61;69.12;96871.16;5035431;28;20201;-32
2022/08/19 01:25:49;;;;;;;4.67;4.27;;;;;;;25.62;68.77;96877.16;5053291;28;20584;-32
2022/08/19 01:28:21;;;;;;;4.80;4.40;;;;;;;25.61;69.08;96878.03;5053173;28;20599;-32
2022/08/19 01:30:59;;;;;;;5.10;4.27;;;;;;;24.92;68.39;96763.72;5053308;28;20317;-31
2022/08/19 01:33:33;;;;;;;4.77;4.20;;;;;;;25.60;69.11;96887.47;5053517;28;20205;-32
2022/08/19 01:36:05;;;;;;;4.60;4.30;;;;;;;25.60;69.12;96894.31;5050127;28;20478;-32
2022/08/19 01:38:36;;;;;;;5.13;4.63;;;;;;;25.60;68.92;96892.59;5050063;28;20670;-32
2022/08/19 01:41:11;;;;;;;4.67;4.37;;;;;;;25.61;69.01;96899.47;5052025;28;20291;-32
2022/08/19 01:43:37;;;;;;;4.80;4.40;;;;;;;25.62;68.85;96908.06;5053218;28;20254;-32
2022/08/19 01:46:24;;;;;;;4.73;4.33;;;;;;;25.59;68.76;96918.34;5050795;28;20200;-31
2022/08/19 01:48:51;;;;;;;4.43;4.10;;;;;;;25.61;69.01;96912.31;5052650;28;20256;-32
2022/08/19 01:51:17;;;;;;;5.30;4.90;;;;;;;25.62;68.72;96918.34;5056802;28;20248;-32
2022/08/19 01:53:47;;;;;;;5.00;4.60;;;;;;;25.62;69.10;96915.78;5053043;28;20647;-38
2022/08/19 01:56:14;;;;;;;4.90;4.50;;;;;;;25.61;69.23;96920.06;5055704;28;20335;-31
2022/08/19 01:58:47;;;;;;;4.80;4.40;;;;;;;25.61;69.03;96920.06;5057640;28;20233;-32
2022/08/19 02:01:14;;;;;;;5.27;4.83;;;;;;;25.61;69.27;96920.06;5043444;28;20241;-31
2022/08/19 02:03:41;;;;;;;5.03;4.63;;;;;;;25.60;68.84;96922.63;5052036;28;20197;-32
2022/08/19 02:06:07;;;;;;;5.03;4.57;;;;;;;25.61;68.93;96916.63;5056164;28;20302;-31
2022/08/19 02:08:36;;;;;;;5.20;4.80;;;;;;;25.58;68.88;96911.47;5050641;28;20307;-32
2022/08/19 02:11:03;;;;;;;4.87;4.47;;;;;;;25.61;69.20;96924.34;5051930;28;20206;-31
2022/08/19 02:13:30;;;;;;;4.90;4.50;;;;;;;25.60;68.89;96936.34;5051684;28;20227;-31
2022/08/19 02:15:57;;;;;;;4.73;4.33;;;;;;;25.59;69.31;96942.38;5055408;28;20292;-31
2022/08/19 02:18:26;;;;;;;4.77;4.37;;;;;;;25.57;68.84;96938.03;5050490;28;20232;-32
2022/08/19 02:20:53;;;;;;;4.20;3.90;;;;;;;25.61;68.83;96947.53;5050762;28;20632;-31
2022/08/19 02:23:20;;;;;;;5.03;4.63;;;;;;;25.52;68.90;96935.44;5052173;28;20241;-32
2022/08/19 02:25:47;;;;;;;4.87;4.40;;;;;;;25.60;69.06;96940.63;5056362;28;20283;-31
2022/08/19 02:28:14;;;;;;;4.93;4.53;;;;;;;25.61;68.96;96934.66;5046230;28;20271;-31
2022/08/19 02:30:44;;;;;;;4.50;4.10;;;;;;;25.61;68.78;96919.22;5054552;28;20201;-31
2022/08/19 02:33:11;;;;;;;4.97;4.47;;;;;;;25.59;69.05;96913.19;5052106;28;20240;-31
2022/08/19 02:35:42;;;;;;;4.83;4.43;;;;;;;25.61;68.70;96911.50;5050867;28;20243;-32
2022/08/19 02:38:26;;;;;;;4.77;4.40;;;;;;;25.61;68.99;96919.22;5052338;28;20260;-31
2022/08/19 02:40:58;;;;;;;4.70;4.30;;;;;;;25.61;68.78;96916.63;5054550;28;20220;-31
2022/08/19 02:43:25;;;;;;;5.03;4.63;;;;;;;25.61;68.86;96919.22;5059191;28;20292;-32
2022/08/19 02:45:52;;;;;;;5.53;5.07;;;;;;;25.55;69.19;96881.44;5052043;28;20243;-32
2022/08/19 02:48:19;;;;;;;4.80;4.40;;;;;;;25.56;68.72;96877.16;5052075;28;20307;-31
2022/08/19 02:50:50;;;;;;;4.90;4.50;;;;;;;25.61;69.09;96885.75;5049716;28;20648;-31
2022/08/19 02:53:19;;;;;;;5.20;4.80;;;;;;;25.61;69.15;96884.03;5051446;28;20205;-32
2022/08/19 02:55:46;;;;;;;5.57;5.17;;;;;;;25.60;69.17;96881.44;5059058;28;20258;-32
2022/08/19 02:58:13;;;;;;;4.97;4.57;;;;;;;25.60;69.04;96881.44;5051784;28;20303;-32
2022/08/19 03:00:45;;;;;;;5.17;4.63;;;;;;;25.60;68.96;96887.47;5057959;28;20264;-31
2022/08/19 03:03:12;;;;;;;4.80;4.40;;;;;;;25.60;68.97;96899.47;5046371;28;20240;-32
2022/08/19 03:05:38;;;;;;;4.23;3.93;;;;;;;25.50;69.07;96887.44;5050934;28;20240;-32
2022/08/19 03:08:22;;;;;;;4.43;4.10;;;;;;;25.60;69.11;96894.31;5045617;28;20221;-32
2022/08/19 03:10:49;;;;;;;4.33;4.03;;;;;;;25.60;68.80;96886.59;5051589;28;20310;-31
2022/08/19 03:13:16;;;;;;;4.67;4.37;;;;;;;25.60;68.79;96899.47;5044135;28;20228;-31
2022/08/19 03:15:44;;;;;;;4.40;4.10;;;;;;;25.60;68.72;96890.03;5051811;28;20201;-32
2022/08/19 03:18:11;;;;;;;4.63;4.27;;;;;;;25.60;68.88;96896.88;5053269;28;20676;-30
2022/08/19 03:20:48;;;;;;;4.50;4.20;;;;;;;25.55;68.79;96893.47;5051596;28;20311;-31
2022/08/19 03:23:16;;;;;;;4.70;4.33;;;;;;;25.59;68.82;96897.75;5050087;28;20240;-31
2022/08/19 03:25:44;;;;;;;4.67;4.27;;;;;;;25.55;68.69;96896.03;5046115;28;20201;-32
2022/08/19 03:28:12;;;;;;;4.30;4.00;;;;;;;25.61;68.72;96902.03;5044743;28;20225;-31
2022/08/19 03:30:40;;;;;;;4.37;4.07;;;;;;;25.60;68.87;96902.91;5047555;28;20201;-32
2022/08/19 03:33:09;;;;;;;5.07;4.67;;;;;;;25.57;68.81;96902.88;5047595;28;20278;-31
2022/08/19 03:35:44;;;;;;;4.70;4.30;;;;;;;25.60;68.65;96896.88;5047320;28;20283;-31
2022/08/19 03:38:11;;;;;;;4.40;4.10;;;;;;;25.57;68.98;96890.03;5040093;28;20260;-31
2022/08/19 03:40:38;;;;;;;4.67;4.37;;;;;;;25.59;68.91;96885.75;5047414;28;20231;-30
2022/08/19 03:43:05;;;;;;;5.00;4.60;;;;;;;25.60;69.00;96886.59;5046419;28;20204;-31
2022/08/19 03:45:32;;;;;;;4.67;4.37;;;;;;;25.60;68.57;96889.16;5047368;28;20294;-31
2022/08/19 03:47:58;;;;;;;4.63;4.23;;;;;;;25.60;68.86;96884.88;5047889;28;20252;-31
2022/08/19 03:50:25;;;;;;;4.67;4.30;;;;;;;25.59;68.91;96893.47;5047541;28;20296;-32
2022/08/19 03:52:52;;;;;;;4.60;4.20;;;;;;;25.58;68.83;96890.91;5047435;28;20735;-31
2022/08/19 03:55:19;;;;;;;4.63;4.33;;;;;;;25.60;68.79;96896.88;5047612;28;20633;-31
2022/08/19 03:57:47;;;;;;;4.17;3.87;;;;;;;25.60;68.92;96894.31;5054795;28;20228;-32
2022/08/19 04:00:14;;;;;;;5.03;4.63;;;;;;;25.60;68.78;96902.91;5047442;28;20723;-31
2022/08/19 04:02:41;;;;;;;5.03;4.63;;;;;;;25.51;68.59;96884.00;5046961;28;20209;-31
2022/08/19 04:05:29;;;;;;;5.00;4.60;;;;;;;25.53;68.89;96890.00;5046224;28;20286;-31
2022/08/19 04:07:58;;;;;;;4.67;4.37;;;;;;;25.60;68.84;96905.47;5049133;28;20228;-32
2022/08/19 04:10:27;;;;;;;4.47;4.17;;;;;;;25.60;68.62;96902.03;5047909;28;20201;-31
2022/08/19 04:12:54;;;;;;;5.07;4.67;;;;;;;25.57;68.89;96891.72;5047621;28;20240;-32
2022/08/19 04:15:20;;;;;;;5.00;4.60;;;;;;;25.61;68.95;96893.47;5062376;28;20636;-32
2022/08/19 04:17:47;;;;;;;4.70;4.30;;;;;;;25.60;68.52;96899.47;5047160;28;20277;-30
2022/08/19 04:20:14;;;;;;;4.87;4.57;;;;;;;25.60;68.84;96905.47;5046756;28;20225;-29
2022/08/19 04:22:40;;;;;;;4.77;4.47;;;;;;;25.61;68.52;96916.63;5046056;28;20217;-30
2022/08/19 04:25:07;;;;;;;5.27;4.87;;;;;;;25.60;69.01;96930.34;5047062;28;20255;-32
2022/08/19 04:27:34;;;;;;;5.10;4.70;;;;;;;25.60;68.88;96938.06;5047156;28;20252;-31
2022/08/19 04:30:01;;;;;;;4.63;4.33;;;;;;;25.60;68.87;96932.91;5046911;28;20211;-31
2022/08/19 04:32:28;;;;;;;4.40;4.10;;;;;;;25.59;68.98;96932.06;5049735;28;20805;-30
2022/08/19 04:34:58;;;;;;;4.90;4.50;;;;;;;25.59;68.47;96932.06;5049754;28;20224;-31
2022/08/19 04:37:43;;;;;;;5.10;4.60;;;;;;;25.59;68.79;96944.06;5047102;28;20217;-31
2022/08/19 04:42:56;;;;;;;5.30;4.90;;;;;;;25.60;68.61;96943.22;5050030;28;20211;-30
2022/08/19 04:45:22;;;;;;;4.87;4.47;;;;;;;25.61;68.73;96939.81;5050579;28;20197;-31
2022/08/19 04:47:49;;;;;;;4.33;4.03;;;;;;;25.54;68.70;96927.75;5050408;28;20766;-30
2022/08/19 04:50:25;;;;;;;4.40;4.10;;;;;;;25.60;68.78;96940.63;5047283;28;20652;-30
2022/08/19 04:52:52;;;;;;;4.57;4.27;;;;;;;25.61;68.57;96950.09;5048448;28;20723;-31
2022/08/19 04:55:19;;;;;;;4.77;4.47;;;;;;;25.62;68.79;96957.81;5049918;28;20258;-31
2022/08/19 04:57:46;;;;;;;4.60;4.30;;;;;;;25.57;68.56;96951.78;5048237;28;20255;-30
2022/08/19 05:00:13;;;;;;;4.97;4.57;;;;;;;25.61;68.87;96952.66;5046102;28;20324;-30
2022/08/19 05:02:39;;;;;;;4.83;4.43;;;;;;;25.61;68.55;96950.09;5045707;28;20630;-30
2022/08/19 05:05:06;;;;;;;4.50;4.20;;;;;;;25.61;68.61;96950.94;5038929;28;20206;-30
2022/08/19 05:07:33;;;;;;;4.87;4.50;;;;;;;25.61;68.84;96952.66;5046865;28;20343;-31
2022/08/19 05:10:00;;;;;;;4.60;4.30;;;;;;;25.61;68.71;96952.66;5062681;28;20205;-30
2022/08/19 05:12:28;;;;;;;4.63;4.30;;;;;;;25.60;69.10;96950.94;5050486;28;20204;-31
2022/08/19 05:14:56;;;;;;;5.43;4.93;;;;;;;25.60;68.92;96951.78;5049145;28;20641;-30
2022/08/19 05:17:24;;;;;;;9.33;8.53;;;;;;;25.61;69.83;96960.38;5050330;28;20238;-30
2022/08/19 05:22:41;;;;;;;16.73;15.03;;;;;;;25.63;73.29;96966.38;5050187;28;20224;-30
2022/08/19 05:25:09;;;;;;;18.87;17.03;;;;;;;25.61;74.36;96961.22;5040815;28;20225;-30
2022/08/19 05:27:39;;;;;;;21.03;18.83;;;;;;;25.63;75.36;96964.69;5050290;28;20252;-30
2022/08/19 05:30:06;;;;;;;18.50;16.70;;;;;;;25.64;74.54;96966.38;5028190;28;20288;-30
2022/08/19 05:32:33;;;;;;;20.80;18.80;;;;;;;25.64;75.35;96965.56;5046043;28;20231;-31
2022/08/19 05:34:59;;;;;;;21.00;18.70;;;;;;;25.64;75.69;96970.69;5049677;28;20359;-30
2022/08/19 05:37:27;;;;;;;21.33;19.00;;;;;;;25.64;75.80;96974.09;5048749;28;20224;-30
2022/08/19 05:39:54;;;;;;;16.63;14.97;;;;;;;25.65;74.64;96972.41;5051977;28;20622;-31
2022/08/19 05:42:22;;;;;;;15.33;13.73;;;;;;;25.64;73.76;96976.69;5049701;28;20651;-31
2022/08/19 05:44:49;;;;;;;15.20;13.77;;;;;;;25.64;73.54;96968.13;5048140;28;20236;-31
2022/08/19 05:47:15;;;;;;;17.57;15.87;;;;;;;25.62;74.81;96973.25;5057776;28;20682;-30
2022/08/19 05:49:42;;;;;;;18.63;15.83;;;;;;;25.63;74.59;96969.81;5048889;28;20466;-31
2022/08/19 05:52:11;;;;;;;17.87;16.17;;;;;;;25.63;74.94;96974.97;5037723;28;21119;-31
2022/08/19 05:54:41;;;;;;;20.17;16.73;;;;;;;25.63;75.01;96976.66;5039331;28;20296;-31
2022/08/19 05:57:08;;;;;;;18.70;16.90;;;;;;;25.63;75.34;96968.94;5037124;28;20292;-31
2022/08/19 05:59:38;;;;;;;18.10;16.27;;;;;;;25.62;75.01;96965.53;5038177;28;20216;-31
2022/08/19 06:02:05;;;;;;;18.53;16.73;;;;;;;25.62;75.29;96965.53;5040977;28;20215;-30
2022/08/19 06:04:31;;;;;;;20.07;18.17;;;;;;;25.61;75.47;96957.81;5038254;28;20282;-31
2022/08/19 06:06:58;;;;;;;19.97;17.87;;;;;;;25.55;75.52;96945.75;5071207;28;20773;-31
2022/08/19 06:09:25;;;;;;;20.43;18.40;;;;;;;25.63;75.66;96962.09;5036676;28;20205;-30
2022/08/19 06:11:53;;;;;;;20.37;18.17;;;;;;;25.62;76.20;96959.53;5037453;28;20200;-31
2022/08/19 06:14:24;;;;;;;21.53;18.57;;;;;;;25.64;75.80;96958.66;5038506;28;20512;-31
2022/08/19 06:16:53;;;;;;;19.77;17.70;;;;;;;25.64;75.68;96958.66;5038610;28;20217;-31
2022/08/19 06:19:21;;;;;;;20.67;18.30;;;;;;;25.64;75.94;96961.25;5038607;28;20849;-31
2022/08/19 06:21:48;;;;;;;19.33;17.53;;;;;;;25.64;75.28;96958.66;5036911;28;20778;-31
2022/08/19 06:24:16;;;;;;;25.37;19.27;;;;;;;25.64;76.12;96952.69;5037606;28;20317;-31
2022/08/19 06:26:44;;;;;;;22.70;20.33;;;;;;;25.65;77.46;96956.97;5038598;28;20755;-30
2022/08/19 06:29:17;;;;;;;23.23;20.67;;;;;;;25.65;77.72;96956.97;5037767;28;20300;-31
2022/08/19 06:31:51;;;;;;;22.90;19.43;;;;;;;25.65;76.99;96962.09;5037189;28;20528;-31
2022/08/19 06:34:18;;;;;;;21.43;19.33;;;;;;;25.64;76.88;96970.69;5037197;28;20256;-30
2022/08/19 06:36:47;;;;;;;21.57;19.23;;;;;;;25.63;76.62;96977.53;5037455;28;20296;-31
2022/08/19 06:39:18;;;;;;;21.97;19.77;;;;;;;25.61;76.99;96970.69;5039347;28;20229;-31
2022/08/19 06:41:46;;;;;;;20.60;18.63;;;;;;;25.63;76.97;96982.69;5036747;28;20311;-30
2022/08/19 06:44:20;;;;;;;20.17;18.10;;;;;;;25.58;76.25;96975.81;5035451;28;20212;-30
2022/08/19 06:46:48;;;;;;;20.93;18.87;;;;;;;25.63;76.11;96984.41;5034634;28;20216;-30
2022/08/19 06:49:20;;;;;;;20.50;18.40;;;;;;;25.62;75.76;96988.69;5035559;28;20838;-31
2022/08/19 06:51:50;;;;;;;19.90;18.00;;;;;;;25.62;75.34;96988.69;5033536;28;20296;-30
2022/08/19 06:54:17;;;;;;;20.17;18.07;;;;;;;25.62;74.99;96987.84;5036996;28;20201;-31
2022/08/19 06:56:45;;;;;;;19.53;17.63;;;;;;;25.62;75.13;96982.69;5034735;28;20209;-31
2022/08/19 06:59:17;;;;;;;19.27;17.37;;;;;;;25.62;75.30;96988.69;5034954;28;20239;-31
2022/08/19 07:01:48;;;;;;;19.77;17.87;;;;;;;25.63;75.04;96986.97;5038230;28;20225;-31
2022/08/19 07:04:16;;;;;;;19.50;17.60;;;;;;;25.63;75.17;96986.97;5035430;28;20312;-30
2022/08/19 07:06:44;;;;;;;20.30;18.30;;;;;;;25.61;75.13;96974.09;5036138;28;20209;-31
2022/08/19 07:09:20;;;;;;;20.80;18.87;;;;;;;25.63;75.38;96968.94;5035184;28;20236;-31
2022/08/19 07:11:49;;;;;;;20.57;18.43;;;;;;;25.63;75.26;96967.25;5034558;28;20307;-30
2022/08/19 07:14:17;;;;;;;19.17;17.10;;;;;;;25.58;74.94;96966.34;5037013;28;20270;-31
2022/08/19 07:16:46;;;;;;;20.17;17.90;;;;;;;25.63;75.06;96968.94;5019396;28;20244;-31
2022/08/19 07:19:14;;;;;;;20.33;18.37;;;;;;;25.63;74.66;96969.81;5032014;28;20323;-31
2022/08/19 07:21:44;;;;;;;19.93;17.93;;;;;;;25.63;74.94;96974.97;5034450;28;20225;-30
2022/08/19 07:24:12;;;;;;;20.80;18.70;;;;;;;25.63;75.44;96976.66;5035321;28;20267;-31
2022/08/19 07:26:40;;;;;;;20.93;18.93;;;;;;;25.59;75.85;96978.41;5035546;28;20299;-31
2022/08/19 07:29:07;;;;;;;20.87;18.70;;;;;;;25.62;75.90;96975.84;5036030;28;20632;-29
2022/08/19 07:31:36;;;;;;;20.80;18.70;;;;;;;25.62;75.67;96974.97;5037245;28;20743;-31
2022/08/19 07:34:06;;;;;;;20.80;18.70;;;;;;;25.63;75.82;96977.53;5033607;28;20220;-31
2022/08/19 07:36:34;;;;;;;20.37;18.47;;;;;;;24.95;75.36;96865.69;5036820;28;20762;-30
2022/08/19 07:39:04;;;;;;;19.57;17.57;;;;;;;25.62;75.46;96978.41;5034229;28;20929;-31
2022/08/19 07:41:31;;;;;;;19.93;17.90;;;;;;;25.57;75.20;96979.22;5036522;28;20307;-31
2022/08/19 07:44:03;;;;;;;20.60;18.50;;;;;;;25.63;75.14;96989.53;5036527;28;20296;-31
2022/08/19 07:46:34;;;;;;;20.87;18.77;;;;;;;25.62;76.45;96986.13;5034595;28;20297;-31
2022/08/19 07:49:00;;;;;;;21.23;19.27;;;;;;;25.64;77.19;96991.28;5034029;28;20267;-30
2022/08/19 07:51:27;;;;;;;22.07;19.97;;;;;;;25.63;76.92;96985.25;5034402;28;20332;-31
2022/08/19 07:54:02;;;;;;;21.93;19.60;;;;;;;25.62;76.57;96980.13;5032615;28;20299;-31
2022/08/19 07:56:28;;;;;;;21.50;19.50;;;;;;;25.62;76.35;96983.56;5031238;28;20288;-31
2022/08/19 07:58:55;;;;;;;21.23;19.13;;;;;;;25.64;77.19;96981.00;5034675;28;20232;-31
2022/08/19 08:01:27;;;;;;;21.67;19.50;;;;;;;25.50;76.21;96962.03;5037896;28;20308;-30
2022/08/19 08:09:31;;;;;;;24.40;21.87;;;;;;;25.63;77.41;96968.94;5031840;28;20307;-31
2022/08/19 08:12:06;;;;;;;24.93;22.53;;;;;;;25.63;77.71;96967.25;5030397;28;20995;-30
2022/08/19 08:14:57;;;;;;;24.33;22.13;;;;;;;25.63;78.14;96964.69;5027346;28;20896;-31
2022/08/19 08:17:26;;;;;;;26.10;23.43;;;;;;;25.63;77.89;96956.09;5028743;28;20718;-31
2022/08/19 08:20:13;;;;;;;24.70;22.30;;;;;;;25.62;77.62;96962.97;5028442;28;20220;-31
2022/08/19 08:25:29;;;;;;;26.43;23.93;;;;;;;25.63;79.59;96976.66;5034038;28;20233;-31
2022/08/19 08:28:00;;;;;;;27.03;24.27;;;;;;;25.64;80.33;96975.84;5033512;28;20232;-31
2022/08/19 08:30:27;;;;;;;26.60;23.90;;;;;;;25.64;80.41;96971.53;5032761;28;20225;-30
2022/08/19 08:32:58;;;;;;;27.60;24.80;;;;;;;25.63;80.60;96969.81;5035455;28;20282;-31
2022/08/19 08:35:25;;;;;;;27.10;24.33;;;;;;;25.63;81.25;96962.09;5035233;28;20207;-31
2022/08/19 08:37:53;;;;;;;28.47;24.57;;;;;;;25.64;80.96;96966.38;5031640;28;20225;-31
2022/08/19 08:41:03;;;;;;;27.20;24.20;;;;;;;25.65;81.41;96980.13;5030058;28;20296;-30
2022/08/19 08:43:34;;;;;;;27.47;23.40;;;;;;;25.64;81.12;96957.81;4941673;28;20689;-31
2022/08/19 08:46:03;;;;;;;25.40;22.80;;;;;;;25.60;81.72;96946.66;4956253;28;20231;-32
2022/08/19 08:48:38;;;;;;;27.33;24.43;;;;;;;25.65;81.79;96959.53;4995564;28;20240;-31
2022/08/19 08:51:09;;;;;;;25.90;23.10;;;;;;;25.64;81.15;96955.25;5042871;28;20717;-30
2022/08/19 08:53:36;;;;;;;25.67;22.97;;;;;;;25.60;80.54;96949.22;5043651;28;20240;-31
2022/08/19 08:56:07;;;;;;;24.43;22.03;;;;;;;25.58;79.83;96944.94;5036768;28;20236;-31
2022/08/19 08:58:57;;;;;;;24.17;21.87;;;;;;;25.57;79.45;96948.34;5027229;28;20221;-31
2022/08/19 09:01:24;;;;;;;25.47;22.97;;;;;;;25.52;79.16;96947.47;5037564;28;20554;-31
2022/08/19 09:03:56;;;;;;;22.77;20.53;;;;;;;25.62;78.31;96964.66;5067222;28;20210;-31
2022/08/19 09:06:46;;;;;;;22.43;20.33;;;;;;;25.62;78.00;96965.53;5041756;28;20635;-30
2022/08/19 09:09:31;;;;;;;23.60;21.20;;;;;;;25.63;77.73;96968.94;5046103;28;20263;-30
2022/08/19 09:12:20;;;;;;;21.13;19.03;;;;;;;25.60;77.20;96959.53;5051518;28;20291;-31
2022/08/19 09:15:03;;;;;;;21.30;19.30;;;;;;;25.54;77.10;96963.75;5041588;28;20205;-31
2022/08/19 09:17:30;;;;;;;21.23;19.23;;;;;;;25.62;76.91;96968.13;5027724;28;20260;-31
2022/08/19 09:20:07;;;;;;;22.07;19.97;;;;;;;25.64;76.93;96968.13;5048567;28;20204;-31
2022/08/19 09:22:39;;;;;;;20.00;18.10;;;;;;;25.63;76.62;96974.09;5050697;28;20259;-31
2022/08/19 09:25:07;;;;;;;21.00;18.97;;;;;;;25.63;76.91;96968.94;5051919;28;20232;-31
2022/08/19 09:27:35;;;;;;;20.93;18.83;;;;;;;25.64;76.59;96970.69;5054186;28;20224;-31
2022/08/19 09:30:25;;;;;;;20.27;18.30;;;;;;;25.64;76.24;96970.69;5049206;28;20355;-31
2022/08/19 09:32:54;;;;;;;20.47;18.27;;;;;;;25.65;76.04;96977.56;5049712;28;20613;-32
2022/08/19 09:35:24;;;;;;;20.20;18.10;;;;;;;25.64;75.92;96976.69;5050145;28;20209;-32
2022/08/19 09:37:54;;;;;;;20.43;18.30;;;;;;;25.64;75.95;96976.69;5044957;28;20465;-31
2022/08/19 09:40:25;;;;;;;20.17;18.17;;;;;;;25.65;76.08;96974.97;5032775;28;20213;-31
2022/08/19 09:42:56;;;;;;;19.67;17.87;;;;;;;25.65;75.84;96974.97;5029884;28;20209;-31
2022/08/19 09:45:23;;;;;;;18.57;16.83;;;;;;;25.63;75.86;96971.53;5032979;28;20661;-31
2022/08/19 09:47:51;;;;;;;19.90;17.93;;;;;;;25.65;75.83;96974.97;5034957;28;20226;-32
2022/08/19 09:50:20;;;;;;;18.27;16.63;;;;;;;25.65;75.49;96973.28;5034646;28;20205;-32
2022/08/19 09:52:47;;;;;;;19.30;17.50;;;;;;;25.65;75.75;96967.25;5032608;28;20644;-32
2022/08/19 09:55:23;;;;;;;19.03;17.23;;;;;;;25.65;75.38;96970.69;5035240;28;20209;-31
2022/08/19 09:58:01;;;;;;;17.63;16.03;;;;;;;25.67;75.44;96973.28;5031696;28;20339;-31
2022/08/19 10:00:27;;;;;;;17.87;16.17;;;;;;;25.66;75.64;96968.97;5030880;28;20301;-32
2022/08/19 10:02:54;;;;;;;18.27;16.53;;;;;;;25.62;75.46;96969.81;5034676;28;20660;-31
2022/08/19 10:08:08;;;;;;;19.20;17.40;;;;;;;25.67;75.38;96981.00;5031747;28;20308;-32
2022/08/19 10:10:45;;;;;;;18.60;16.90;;;;;;;25.66;75.10;96976.69;5037419;28;21386;-32
2022/08/19 10:13:14;;;;;;;18.40;16.40;;;;;;;25.66;75.26;96972.41;5031516;28;20208;-31
2022/08/19 10:15:41;;;;;;;16.40;14.97;;;;;;;25.67;75.15;96987.03;5031875;28;20786;-32
2022/08/19 10:18:13;;;;;;;17.83;16.10;;;;;;;25.65;74.95;96981.00;5034705;28;20620;-32
2022/08/19 10:20:41;;;;;;;17.53;15.87;;;;;;;25.67;75.33;96983.56;5039222;28;20228;-31
2022/08/19 10:23:09;;;;;;;16.63;14.93;;;;;;;25.66;75.11;96979.25;5047438;28;20207;-32
2022/08/19 10:25:35;;;;;;;18.37;16.67;;;;;;;25.65;76.25;96977.56;5048353;28;20200;-31
2022/08/19 10:28:04;;;;;;;17.93;16.13;;;;;;;25.65;76.43;96983.56;5048942;28;20252;-32
2022/08/19 10:30:36;;;;;;;18.80;17.00;;;;;;;25.65;76.43;96980.13;5042901;28;20296;-31
2022/08/19 10:33:03;;;;;;;19.20;17.43;;;;;;;25.64;77.41;96979.25;5046541;28;20232;-31
2022/08/19 10:35:37;;;;;;;19.00;17.20;;;;;;;25.65;77.63;96977.56;5049763;28;20233;-31
2022/08/19 10:38:23;;;;;;;19.60;17.63;;;;;;;25.64;78.54;96978.41;5047267;28;20319;-31
2022/08/19 10:40:57;;;;;;;20.57;18.37;;;;;;;25.64;78.74;96978.41;5048426;28;20219;-32
2022/08/19 10:43:24;;;;;;;20.87;18.87;;;;;;;25.63;78.79;96972.41;5046317;28;20232;-32
2022/08/19 10:45:59;;;;;;;20.20;18.20;;;;;;;25.64;79.33;96979.25;5047517;28;20197;-32
2022/08/19 10:48:25;;;;;;;21.53;19.43;;;;;;;25.63;80.46;96976.66;5050495;28;20220;-32
2022/08/19 10:53:49;;;;;;;20.53;18.43;;;;;;;25.62;80.15;96992.97;5050167;28;20205;-31
2022/08/19 10:59:03;;;;;;;20.03;17.97;;;;;;;25.61;80.71;96973.25;5043443;28;20256;-32
2022/08/19 11:01:30;;;;;;;20.87;18.80;;;;;;;25.61;80.60;96968.09;5042235;28;20316;-32
2022/08/19 11:03:57;;;;;;;22.23;19.97;;;;;;;25.60;81.53;96968.94;5081232;28;20209;-32
2022/08/19 11:06:25;;;;;;;21.63;19.53;;;;;;;25.54;82.04;96956.91;5048485;28;20229;-32
2022/08/19 11:08:52;;;;;;;20.70;18.67;;;;;;;25.60;82.02;96969.81;5049421;28;20312;-32
2022/08/19 11:11:19;;;;;;;20.87;18.77;;;;;;;25.53;82.28;96956.91;5048752;28;20244;-32
2022/08/19 11:13:47;;;;;;;21.70;19.10;;;;;;;25.60;82.65;96962.09;5048453;28;20247;-31
2022/08/19 11:16:16;;;;;;;21.87;19.50;;;;;;;25.60;84.14;96967.25;5047393;28;20232;-31
2022/08/19 11:18:50;;;;;;;20.87;18.77;;;;;;;25.61;83.54;96957.81;5047553;28;20327;-32
2022/08/19 11:21:23;;;;;;;19.73;17.63;;;;;;;25.56;82.56;96950.06;5045119;28;20307;-31
2022/08/19 11:23:51;;;;;;;19.43;17.20;;;;;;;25.57;81.93;96969.78;5039725;28;20432;-32
2022/08/19 11:26:18;;;;;;;20.27;17.53;;;;;;;25.58;81.60;96968.09;5048722;28;20204;-31
2022/08/19 11:28:45;;;;;;;20.33;17.90;;;;;;;25.56;81.26;96975.81;5048505;28;20252;-32
2022/08/19 11:31:12;;;;;;;19.57;17.50;;;;;;;25.57;80.75;96981.78;5041384;28;20497;-31
2022/08/19 11:33:39;;;;;;;18.93;16.93;;;;;;;25.58;80.48;96983.53;5040527;28;20272;-31
2022/08/19 11:36:07;;;;;;;19.27;17.17;;;;;;;25.57;80.12;96984.38;5045687;28;20320;-32
2022/08/19 11:38:35;;;;;;;19.33;17.43;;;;;;;25.54;80.17;96972.34;5044954;28;20252;-31
2022/08/19 11:41:03;;;;;;;18.53;16.57;;;;;;;25.51;79.44;96962.06;5044601;28;20208;-32
2022/08/19 11:43:31;;;;;;;17.93;16.23;;;;;;;25.57;78.82;96974.94;5048551;28;20237;-31
2022/08/19 11:46:06;;;;;;;17.93;16.13;;;;;;;25.56;78.90;96978.38;5048548;28;20682;-31
2022/08/19 11:48:34;;;;;;;18.43;16.47;;;;;;;25.53;78.70;96970.66;5044613;28;20316;-31
2022/08/19 11:51:05;;;;;;;17.57;15.77;;;;;;;25.48;78.96;96963.72;5048322;28;20239;-31
2022/08/19 11:53:31;;;;;;;17.20;15.40;;;;;;;25.54;79.09;96964.63;5039875;28;20232;-31
2022/08/19 11:55:58;;;;;;;17.70;15.93;;;;;;;25.57;79.42;96979.22;5045772;28;20292;-31
2022/08/19 11:58:24;;;;;;;16.97;15.27;;;;;;;25.56;79.32;96972.38;5047963;28;20303;-32